Time;durP1;ratioP1;P1;durP2;ratioP2;P2;SDS_P1;SDS_P2;PMS_P1;PMS_P2;Temp;Humidity;BMP_temperature;BMP_pressure;BME280_temperature;BME280_humidity;BME280_pressure;Samples;Min_cycle;Max_cycle;Signal;HPM_P1;HPM_P2
2024/01/17 00:00:07;;;;;;;1.53;0.47;;;;;;;-0.66;100.00;99910.38;5076574;28;20465;-71
2024/01/17 00:02:33;;;;;;;1.50;0.47;;;;;;;-0.64;100.00;99909.06;5076625;28;20469;-71
2024/01/17 00:05:00;;;;;;;1.70;0.73;;;;;;;-0.62;100.00;99909.63;5076781;28;20469;-71
2024/01/17 00:07:27;;;;;;;1.50;0.40;;;;;;;-0.66;100.00;99911.16;5076077;28;20955;-70
2024/01/17 00:09:53;;;;;;;1.50;0.40;;;;;;;-0.65;100.00;99907.47;5076975;28;20784;-70
2024/01/17 00:12:20;;;;;;;3.37;2.07;;;;;;;-0.77;100.00;99904.88;5076428;28;20506;-70
2024/01/17 00:14:48;;;;;;;1.60;0.60;;;;;;;-0.76;100.00;99913.66;5076182;28;20483;-71
2024/01/17 00:17:15;;;;;;;1.50;0.40;;;;;;;-0.81;100.00;99906.41;5076263;28;20465;-71
2024/01/17 00:19:41;;;;;;;2.17;1.00;;;;;;;-0.81;100.00;99908.25;5076515;28;20444;-71
2024/01/17 00:22:08;;;;;;;1.90;0.53;;;;;;;-0.83;100.00;99905.88;5076467;28;20464;-71
2024/01/17 00:24:35;;;;;;;2.90;1.90;;;;;;;-0.90;100.00;99901.75;5076123;28;20429;-71
2024/01/17 00:27:03;;;;;;;2.23;1.17;;;;;;;-0.94;100.00;99898.75;5076378;28;20441;-71
2024/01/17 00:29:29;;;;;;;2.77;0.93;;;;;;;-1.00;100.00;99888.31;5075990;28;20791;-71
2024/01/17 00:31:57;;;;;;;1.70;0.70;;;;;;;-1.04;100.00;99899.41;5075497;28;20457;-71
2024/01/17 00:34:24;;;;;;;1.50;0.40;;;;;;;-1.02;100.00;99885.88;5076469;28;20488;-71
2024/01/17 00:36:51;;;;;;;1.50;0.30;;;;;;;-1.03;100.00;99885.06;5076257;28;20473;-71
2024/01/17 00:39:18;;;;;;;1.67;0.63;;;;;;;-1.03;100.00;99884.28;5075684;28;20942;-71
2024/01/17 00:41:45;;;;;;;3.67;1.37;;;;;;;-1.03;100.00;99884.28;5075612;28;20513;-71
2024/01/17 00:44:16;;;;;;;2.07;1.17;;;;;;;-1.02;100.00;99877.91;5075729;28;20519;-71
2024/01/17 00:46:43;;;;;;;1.53;0.40;;;;;;;-1.02;100.00;99884.03;5076051;28;20467;-71
2024/01/17 00:49:12;;;;;;;1.50;0.50;;;;;;;-1.07;100.00;99880.47;5075828;28;20815;-70
2024/01/17 00:51:38;;;;;;;1.70;0.77;;;;;;;-1.10;100.00;99878.34;5075875;28;20552;-70
2024/01/17 00:54:05;;;;;;;1.63;0.57;;;;;;;-1.11;100.00;99880.16;5075778;28;20575;-70
2024/01/17 00:56:32;;;;;;;1.50;0.30;;;;;;;-1.11;100.00;99879.34;5075499;28;20477;-70
2024/01/17 00:58:59;;;;;;;1.60;0.40;;;;;;;-1.09;100.00;99874.63;5075394;28;20441;-70
2024/01/17 01:01:25;;;;;;;1.50;0.43;;;;;;;-1.18;100.00;99876.88;5075318;28;20457;-70
2024/01/17 01:03:52;;;;;;;1.60;0.60;;;;;;;-1.26;100.00;99866.63;5075063;28;20831;-70
2024/01/17 01:06:20;;;;;;;1.60;0.60;;;;;;;-1.33;100.00;99864.16;5074974;28;20837;-70
2024/01/17 01:08:47;;;;;;;1.60;0.50;;;;;;;-1.31;100.00;99877.19;5074892;28;20445;-70
2024/01/17 01:11:13;;;;;;;1.50;0.40;;;;;;;-1.37;100.00;99868.34;5075064;28;21065;-70
2024/01/17 01:13:40;;;;;;;2.13;0.93;;;;;;;-1.39;100.00;99872.25;5075077;28;20489;-70
2024/01/17 01:16:09;;;;;;;3.00;1.50;;;;;;;-1.40;100.00;99873.31;5074830;28;20932;-70
2024/01/17 01:18:36;;;;;;;1.73;0.70;;;;;;;-1.45;100.00;99876.69;5074767;28;20929;-70
2024/01/17 01:21:03;;;;;;;1.50;0.40;;;;;;;-1.46;100.00;99866.28;5074736;28;20812;-72
2024/01/17 01:23:31;;;;;;;1.50;0.40;;;;;;;-1.50;100.00;99863.31;5075204;28;20516;-70
2024/01/17 01:25:57;;;;;;;1.60;0.60;;;;;;;-1.46;100.00;99863.63;5074671;28;20449;-71
2024/01/17 01:28:24;;;;;;;1.70;0.53;;;;;;;-1.46;100.00;99853.00;5074840;28;20443;-71
2024/01/17 01:30:50;;;;;;;1.60;0.50;;;;;;;-1.46;100.00;99859.16;5074497;28;20990;-71
2024/01/17 01:33:17;;;;;;;3.30;0.67;;;;;;;-1.47;100.00;99857.50;5074597;28;20493;-70
2024/01/17 01:35:44;;;;;;;1.60;0.60;;;;;;;-1.48;100.00;99855.91;5074809;28;20471;-70
2024/01/17 01:38:10;;;;;;;1.50;0.50;;;;;;;-1.50;100.00;99847.41;5074704;28;20477;-70
2024/01/17 01:40:39;;;;;;;3.73;2.00;;;;;;;-1.47;100.00;99851.41;5075064;28;20457;-70
2024/01/17 01:43:19;;;;;;;10.90;1.83;;;;;;;-1.52;100.00;99849.47;5073347;28;20511;-71
2024/01/17 01:46:09;;;;;;;1.70;0.70;;;;;;;-1.60;100.00;99847.19;5074915;28;20443;-71
2024/01/17 01:48:36;;;;;;;1.50;0.40;;;;;;;-1.60;100.00;99847.19;5077274;28;20767;-71
2024/01/17 01:51:03;;;;;;;2.20;0.83;;;;;;;-1.61;100.00;99845.59;5075003;28;20478;-71
2024/01/17 01:53:32;;;;;;;1.50;0.30;;;;;;;-1.67;100.00;99846.56;5074453;28;20530;-71
2024/01/17 01:56:01;;;;;;;3.27;2.33;;;;;;;-1.68;100.00;99839.63;5074374;28;20533;-71
2024/01/17 01:58:29;;;;;;;1.60;0.40;;;;;;;-1.75;100.00;99844.28;5074409;28;20994;-71
2024/01/17 02:00:57;;;;;;;1.50;0.40;;;;;;;-1.74;100.00;99846.69;5074626;28;20469;-71
2024/01/17 02:03:25;;;;;;;2.27;1.00;;;;;;;-1.75;100.00;99833.66;5074369;28;20807;-71
2024/01/17 02:05:51;;;;;;;2.73;1.17;;;;;;;-1.80;100.00;99832.53;5074938;28;20445;-71
2024/01/17 02:08:19;;;;;;;1.50;0.30;;;;;;;-1.83;100.00;99829.53;5074267;28;20858;-71
2024/01/17 02:10:45;;;;;;;1.60;0.67;;;;;;;-1.82;100.00;99828.50;5074263;28;20447;-72
2024/01/17 02:13:14;;;;;;;1.80;1.00;;;;;;;-1.82;100.00;99823.19;5073723;28;20453;-71
2024/01/17 02:15:41;;;;;;;1.50;0.30;;;;;;;-1.82;100.00;99820.53;5073840;28;20524;-71
2024/01/17 02:18:08;;;;;;;2.57;1.53;;;;;;;-1.87;100.00;99813.28;5074056;28;20806;-71
2024/01/17 02:20:34;;;;;;;3.60;0.77;;;;;;;-1.81;100.00;99808.91;5073680;28;20438;-71
2024/01/17 02:23:00;;;;;;;2.33;1.53;;;;;;;-1.91;100.00;99801.53;5073836;28;20553;-71
2024/01/17 02:25:28;;;;;;;2.73;0.97;;;;;;;-1.93;100.00;99806.28;5073820;28;20290;-72
2024/01/17 02:27:55;;;;;;;1.60;0.57;;;;;;;-1.96;100.00;99805.94;5073871;28;20441;-72
2024/01/17 02:30:22;;;;;;;2.13;0.70;;;;;;;-1.96;100.00;99805.94;5073811;28;20465;-72
2024/01/17 02:32:48;;;;;;;1.70;0.67;;;;;;;-2.00;100.00;99800.31;5073662;28;20554;-71
2024/01/17 02:35:15;;;;;;;1.80;0.83;;;;;;;-2.03;100.00;99804.25;5073645;28;20570;-71
2024/01/17 02:37:42;;;;;;;1.47;0.30;;;;;;;-2.03;100.00;99796.31;5074023;28;20532;-72
2024/01/17 02:40:09;;;;;;;1.60;0.60;;;;;;;-2.01;100.00;99803.22;5073362;28;20885;-71
2024/01/17 02:42:37;;;;;;;1.50;0.30;;;;;;;-2.03;100.00;99791.00;5073563;28;20556;-71
2024/01/17 02:45:04;;;;;;;1.70;0.67;;;;;;;-1.99;100.00;99788.69;5073652;28;20430;-71
2024/01/17 02:47:31;;;;;;;1.87;0.67;;;;;;;-1.99;100.00;99785.19;5073874;28;20939;-71
2024/01/17 02:49:58;;;;;;;1.50;0.37;;;;;;;-1.98;100.00;99782.31;5073540;28;20477;-71
2024/01/17 02:52:25;;;;;;;2.50;0.83;;;;;;;-1.99;100.00;99777.22;5073283;28;20457;-71
2024/01/17 02:54:52;;;;;;;1.70;0.60;;;;;;;-1.98;100.00;99766.41;5073511;28;20480;-72
2024/01/17 02:57:20;;;;;;;6.47;1.53;;;;;;;-1.96;100.00;99764.31;5073754;28;20473;-71
2024/01/17 02:59:48;;;;;;;1.50;0.30;;;;;;;-1.94;100.00;99764.09;5073406;28;20448;-71
2024/01/17 03:02:14;;;;;;;1.50;0.30;;;;;;;-2.03;100.00;99751.19;5073160;28;20969;-71
2024/01/17 03:04:41;;;;;;;1.50;0.40;;;;;;;-2.08;100.00;99756.41;5073741;28;20456;-71
2024/01/17 03:07:08;;;;;;;1.50;0.40;;;;;;;-2.05;100.00;99752.47;5073422;28;20528;-71
2024/01/17 03:09:34;;;;;;;1.50;0.30;;;;;;;-2.04;100.00;99743.47;5073604;28;20529;-71
2024/01/17 03:12:01;;;;;;;1.50;0.40;;;;;;;-2.08;100.00;99744.97;5072990;28;20489;-71
2024/01/17 03:14:30;;;;;;;2.13;0.83;;;;;;;-2.07;100.00;99736.00;5073198;28;20590;-71
2024/01/17 03:16:59;;;;;;;1.63;0.70;;;;;;;-2.00;100.00;99739.28;5073242;28;20441;-71
2024/01/17 03:19:25;;;;;;;1.60;0.60;;;;;;;-1.95;100.00;99726.09;5072918;28;20529;-71
2024/01/17 03:21:52;;;;;;;1.43;0.40;;;;;;;-1.87;100.00;99730.22;5073089;28;20461;-71
2024/01/17 03:24:19;;;;;;;1.50;0.30;;;;;;;-1.86;100.00;99727.34;5073420;28;20429;-71
2024/01/17 03:26:45;;;;;;;3.87;1.33;;;;;;;-1.85;100.00;99728.94;5073535;28;20874;-71
2024/01/17 03:29:12;;;;;;;1.50;0.50;;;;;;;-1.83;100.00;99718.88;5072882;28;20472;-71
2024/01/17 03:31:39;;;;;;;1.87;0.60;;;;;;;-1.84;100.00;99719.94;5073012;28;20489;-71
2024/01/17 03:34:07;;;;;;;1.47;0.30;;;;;;;-1.84;100.00;99708.53;5073064;28;21008;-71
2024/01/17 03:36:33;;;;;;;1.50;0.37;;;;;;;-1.86;100.00;99703.47;5073013;28;20524;-71
2024/01/17 03:39:00;;;;;;;1.50;0.40;;;;;;;-1.88;100.00;99696.78;5073207;28;20437;-71
2024/01/17 03:41:26;;;;;;;1.50;0.30;;;;;;;-1.91;100.00;99697.25;5073148;28;20491;-71
2024/01/17 03:43:53;;;;;;;2.63;1.17;;;;;;;-1.94;100.00;99693.25;5072732;28;20854;-71
2024/01/17 03:46:20;;;;;;;1.87;1.03;;;;;;;-1.96;100.00;99695.31;5072992;28;20477;-71
2024/01/17 03:48:46;;;;;;;1.50;0.40;;;;;;;-1.94;100.00;99685.28;5072991;28;20445;-71
2024/01/17 03:51:14;;;;;;;4.80;1.63;;;;;;;-1.95;100.00;99685.50;5073272;28;20437;-71
2024/01/17 03:53:41;;;;;;;2.20;0.63;;;;;;;-1.98;100.00;99670.88;5072598;28;20437;-71
2024/01/17 03:56:08;;;;;;;2.67;1.70;;;;;;;-2.00;100.00;99672.97;5072594;28;20925;-71
2024/01/17 03:58:34;;;;;;;3.27;1.10;;;;;;;-2.04;100.00;99674.47;5072869;28;20433;-71
2024/01/17 04:01:01;;;;;;;2.90;1.30;;;;;;;-2.06;100.00;99658.81;5072836;28;20524;-71
2024/01/17 04:03:28;;;;;;;1.47;0.50;;;;;;;-2.08;100.00;99662.75;5072621;28;20807;-71
2024/01/17 04:05:54;;;;;;;1.50;0.40;;;;;;;-2.10;100.00;99656.88;5073444;28;20520;-71
2024/01/17 04:08:22;;;;;;;1.50;0.40;;;;;;;-2.14;100.00;99653.09;5076824;28;20436;-71
2024/01/17 04:10:49;;;;;;;2.17;0.60;;;;;;;-2.25;100.00;99654.00;5075999;28;20520;-71
2024/01/17 04:13:16;;;;;;;1.70;0.77;;;;;;;-2.33;100.00;99648.03;5076562;28;20492;-71
2024/01/17 04:15:43;;;;;;;1.50;0.30;;;;;;;-2.37;100.00;99646.91;5076107;28;20488;-71
2024/01/17 04:18:09;;;;;;;1.50;0.40;;;;;;;-2.37;100.00;99643.44;5076178;28;20524;-70
2024/01/17 04:20:36;;;;;;;2.57;1.50;;;;;;;-2.36;100.00;99645.06;5076014;28;20520;-70
2024/01/17 04:23:04;;;;;;;1.60;0.60;;;;;;;-2.39;100.00;99638.41;5075961;28;20457;-71
2024/01/17 04:25:32;;;;;;;1.70;0.70;;;;;;;-2.42;100.00;99633.56;5076321;28;20494;-70
2024/01/17 04:27:59;;;;;;;2.53;0.87;;;;;;;-2.42;100.00;99633.56;5076356;28;20517;-70
2024/01/17 04:30:26;;;;;;;1.50;0.50;;;;;;;-2.43;100.00;99631.97;5075952;28;20473;-70
2024/01/17 04:32:52;;;;;;;1.50;0.30;;;;;;;-2.37;100.00;99630.19;5075870;28;20464;-70
2024/01/17 04:35:20;;;;;;;1.80;0.60;;;;;;;-2.38;100.00;99623.28;5076703;28;21080;-70
2024/01/17 04:37:47;;;;;;;1.60;0.50;;;;;;;-2.42;100.00;99620.31;5078232;28;20477;-70
2024/01/17 04:40:14;;;;;;;1.50;0.33;;;;;;;-2.47;100.00;99614.91;5081806;28;20528;-70
2024/01/17 04:42:43;;;;;;;1.90;0.80;;;;;;;-2.54;100.00;99619.56;5083788;28;20957;-70
2024/01/17 04:45:12;;;;;;;1.73;0.60;;;;;;;-2.49;100.00;99618.84;5083024;28;20481;-70
2024/01/17 04:47:38;;;;;;;3.10;1.50;;;;;;;-2.52;100.00;99606.88;5081906;28;20442;-70
2024/01/17 04:50:06;;;;;;;1.70;0.80;;;;;;;-2.55;100.00;99605.50;5075781;28;20543;-70
2024/01/17 04:52:32;;;;;;;1.43;0.37;;;;;;;-2.54;100.00;99604.44;5075493;28;21040;-70
2024/01/17 04:54:59;;;;;;;1.40;0.30;;;;;;;-2.49;100.00;99601.09;5075830;28;20566;-70
2024/01/17 04:57:26;;;;;;;1.50;0.50;;;;;;;-2.47;100.00;99582.31;5075822;28;20496;-70
2024/01/17 04:59:54;;;;;;;3.07;2.17;;;;;;;-2.52;100.00;99590.97;5075403;28;20916;-70
2024/01/17 05:02:20;;;;;;;1.40;0.30;;;;;;;-2.56;100.00;99584.53;5075408;28;20560;-70
2024/01/17 05:04:47;;;;;;;1.90;1.17;;;;;;;-2.61;100.00;99587.91;5075325;28;20524;-70
2024/01/17 05:07:14;;;;;;;1.70;0.63;;;;;;;-2.58;100.00;99582.13;5075499;28;20445;-70
2024/01/17 05:09:40;;;;;;;1.50;0.40;;;;;;;-2.57;100.00;99580.25;5075255;28;20524;-70
2024/01/17 05:12:07;;;;;;;1.50;0.30;;;;;;;-2.57;100.00;99573.16;5074889;28;20969;-70
2024/01/17 05:14:34;;;;;;;1.60;0.67;;;;;;;-2.55;100.00;99567.59;5075047;28;21067;-70
2024/01/17 05:17:02;;;;;;;1.50;0.50;;;;;;;-2.53;100.00;99568.16;5075174;28;20933;-70
2024/01/17 05:19:28;;;;;;;1.50;0.30;;;;;;;-2.59;100.00;99561.16;5075448;28;20532;-70
2024/01/17 05:21:55;;;;;;;2.37;0.73;;;;;;;-2.60;100.00;99551.59;5075353;28;20844;-70
2024/01/17 05:24:21;;;;;;;1.47;0.40;;;;;;;-2.57;100.00;99553.75;5074969;28;20523;-70
2024/01/17 05:26:48;;;;;;;2.20;0.60;;;;;;;-2.62;100.00;99554.47;5074968;28;20972;-70
2024/01/17 05:29:15;;;;;;;1.97;0.60;;;;;;;-2.62;100.00;99558.97;5075209;28;20524;-70
2024/01/17 05:31:41;;;;;;;3.03;0.87;;;;;;;-2.66;100.00;99552.53;5075226;28;20493;-70
2024/01/17 05:34:09;;;;;;;1.70;0.73;;;;;;;-2.64;100.00;99556.59;5075411;28;20528;-70
2024/01/17 05:36:37;;;;;;;1.50;0.40;;;;;;;-2.64;100.00;99553.94;5074435;28;20484;-70
2024/01/17 05:39:04;;;;;;;2.13;0.90;;;;;;;-2.66;100.00;99539.31;5074592;28;20438;-70
2024/01/17 05:41:31;;;;;;;2.37;1.00;;;;;;;-2.64;100.00;99538.03;5073695;28;20481;-70
2024/01/17 05:43:57;;;;;;;2.07;0.60;;;;;;;-2.69;100.00;99534.50;5073885;28;20856;-70
2024/01/17 05:46:24;;;;;;;1.50;0.50;;;;;;;-2.70;100.00;99528.41;5074422;28;20513;-70
2024/01/17 05:48:51;;;;;;;2.00;1.07;;;;;;;-2.70;100.00;99535.53;5074301;28;20445;-70
2024/01/17 05:51:19;;;;;;;1.73;0.67;;;;;;;-2.70;100.00;99525.75;5074647;28;20528;-72
2024/01/17 05:53:45;;;;;;;1.50;0.50;;;;;;;-2.69;100.00;99518.59;5074372;28;21057;-71
2024/01/17 05:56:12;;;;;;;1.47;0.40;;;;;;;-2.69;100.00;99521.25;5074488;28;21078;-71
2024/01/17 05:58:39;;;;;;;1.50;0.30;;;;;;;-2.70;100.00;99509.03;5074615;28;20445;-71
2024/01/17 06:01:06;;;;;;;1.40;0.30;;;;;;;-2.67;100.00;99503.25;5074242;28;20532;-72
2024/01/17 06:03:32;;;;;;;1.50;0.37;;;;;;;-2.73;100.00;99498.91;5074505;28;21002;-72
2024/01/17 06:05:59;;;;;;;1.60;0.50;;;;;;;-2.73;100.00;99493.63;5074528;28;20513;-72
2024/01/17 06:08:27;;;;;;;4.17;1.33;;;;;;;-2.73;100.00;99498.91;5073881;28;20472;-72
2024/01/17 06:10:54;;;;;;;1.50;0.40;;;;;;;-2.70;100.00;99491.31;5074117;28;20507;-71
2024/01/17 06:13:21;;;;;;;1.50;0.40;;;;;;;-2.75;100.00;99482.44;5073607;28;20876;-71
2024/01/17 06:15:47;;;;;;;5.23;0.77;;;;;;;-2.69;100.00;99481.50;5073566;28;21016;-71
2024/01/17 06:18:14;;;;;;;1.50;0.50;;;;;;;-2.62;100.00;99488.22;5074076;28;20439;-71
2024/01/17 06:20:41;;;;;;;1.50;0.30;;;;;;;-2.59;100.00;99482.44;5073804;28;20444;-71
2024/01/17 06:23:07;;;;;;;4.80;0.87;;;;;;;-2.61;100.00;99473.94;5073519;28;21019;-71
2024/01/17 06:25:35;;;;;;;1.47;0.30;;;;;;;-2.60;100.00;99478.19;5074310;28;20524;-70
2024/01/17 06:28:02;;;;;;;1.43;0.33;;;;;;;-2.63;100.00;99468.06;5074130;28;20437;-70
2024/01/17 06:30:28;;;;;;;1.50;0.40;;;;;;;-2.62;100.00;99466.22;5073460;28;20539;-70
2024/01/17 06:32:55;;;;;;;1.93;0.90;;;;;;;-2.61;100.00;99457.25;5073833;28;20464;-69
2024/01/17 06:35:21;;;;;;;3.03;1.90;;;;;;;-2.61;100.00;99459.91;5073621;28;20476;-70
2024/01/17 06:37:48;;;;;;;1.50;0.40;;;;;;;-2.61;100.00;99454.59;5073894;28;20865;-70
2024/01/17 06:40:15;;;;;;;1.80;0.87;;;;;;;-2.59;100.00;99455.13;5073322;28;20525;-70
2024/01/17 06:42:43;;;;;;;1.50;0.30;;;;;;;-2.59;100.00;99447.19;5073632;28;20537;-70
2024/01/17 06:45:10;;;;;;;1.50;0.30;;;;;;;-2.61;100.00;99441.34;5073592;28;20527;-70
2024/01/17 06:47:37;;;;;;;1.50;0.43;;;;;;;-2.60;100.00;99432.34;5073186;28;20796;-70
2024/01/17 06:50:04;;;;;;;1.70;0.83;;;;;;;-2.59;100.00;99423.34;5073512;28;20437;-71
2024/01/17 06:52:31;;;;;;;4.97;1.70;;;;;;;-2.61;100.00;99422.78;5073319;28;20981;-70
2024/01/17 06:54:58;;;;;;;1.70;0.70;;;;;;;-2.60;100.00;99419.09;5073317;28;20560;-70
2024/01/17 06:57:24;;;;;;;2.73;1.87;;;;;;;-2.62;100.00;99419.31;5073091;28;20863;-70
2024/01/17 06:59:52;;;;;;;4.43;2.00;;;;;;;-2.63;100.00;99417.72;5073356;28;20542;-70
2024/01/17 07:02:19;;;;;;;1.70;0.80;;;;;;;-2.65;99.95;99405.78;5073290;28;20548;-70
2024/01/17 07:04:45;;;;;;;2.53;0.83;;;;;;;-2.63;100.00;99393.06;5073391;28;20473;-70
2024/01/17 07:07:12;;;;;;;1.47;0.30;;;;;;;-2.66;100.00;99397.00;5073368;28;20805;-70
2024/01/17 07:09:38;;;;;;;1.50;0.50;;;;;;;-2.63;100.00;99393.06;5073697;28;20441;-70
2024/01/17 07:12:06;;;;;;;1.50;0.40;;;;;;;-2.62;100.00;99392.00;5073245;28;20544;-70
2024/01/17 07:14:32;;;;;;;1.80;1.17;;;;;;;-2.62;99.94;99382.22;5073608;28;20484;-71
2024/01/17 07:17:00;;;;;;;1.40;0.30;;;;;;;-2.63;99.17;99374.50;5072859;28;20499;-71
2024/01/17 07:19:27;;;;;;;1.40;0.30;;;;;;;-2.64;100.00;99370.25;5073482;28;20495;-71
2024/01/17 07:21:54;;;;;;;1.50;0.40;;;;;;;-2.64;99.53;99365.75;5073469;28;21040;-72
2024/01/17 07:24:20;;;;;;;1.50;0.30;;;;;;;-2.68;99.90;99366.50;5073748;28;20523;-72
2024/01/17 07:26:47;;;;;;;1.60;0.60;;;;;;;-2.64;99.68;99359.66;5073742;28;20453;-72
2024/01/17 07:29:14;;;;;;;1.40;0.30;;;;;;;-2.62;99.96;99353.06;5073361;28;20532;-72
2024/01/17 07:31:41;;;;;;;1.50;0.50;;;;;;;-2.57;99.16;99353.16;5072860;28;20469;-72
2024/01/17 07:34:08;;;;;;;1.60;0.60;;;;;;;-2.53;99.57;99353.44;5073537;28;20471;-71
2024/01/17 07:36:35;;;;;;;1.47;0.30;;;;;;;-2.54;99.88;99349.19;5073705;28;20491;-71
2024/01/17 07:39:02;;;;;;;1.60;0.70;;;;;;;-2.51;99.94;99337.31;5073324;28;20528;-71
2024/01/17 07:41:29;;;;;;;1.50;0.33;;;;;;;-2.46;99.60;99332.06;5074154;28;20556;-71
2024/01/17 07:43:56;;;;;;;1.50;0.40;;;;;;;-2.47;99.41;99325.16;5076909;28;20819;-71
2024/01/17 07:46:22;;;;;;;1.50;0.33;;;;;;;-2.43;98.84;99320.97;5076762;28;20840;-71
2024/01/17 07:48:49;;;;;;;4.80;3.03;;;;;;;-2.41;98.94;99322.31;5076730;28;20525;-72
2024/01/17 07:51:17;;;;;;;1.40;0.30;;;;;;;-2.42;98.90;99312.75;5076393;28;20940;-71
2024/01/17 07:53:43;;;;;;;3.60;0.87;;;;;;;-2.38;98.63;99305.13;5076569;28;20982;-72
2024/01/17 07:56:11;;;;;;;1.63;0.70;;;;;;;-2.32;98.88;99310.22;5076587;28;20586;-71
2024/01/17 07:58:37;;;;;;;1.70;0.60;;;;;;;-2.26;97.97;99305.78;5076602;28;20443;-72
2024/01/17 08:01:05;;;;;;;1.47;0.33;;;;;;;-2.29;98.19;99295.69;5076828;28;20486;-72
2024/01/17 08:03:31;;;;;;;7.23;2.10;;;;;;;-2.26;97.39;99294.38;5076832;28;20500;-71
2024/01/17 08:05:58;;;;;;;1.50;0.50;;;;;;;-2.26;97.03;99283.75;5076862;28;20464;-72
2024/01/17 08:08:26;;;;;;;1.47;0.30;;;;;;;-2.17;96.84;99280.44;5076405;28;20494;-72
2024/01/17 08:10:53;;;;;;;1.50;0.40;;;;;;;-2.14;96.45;99279.13;5076320;28;20524;-72
2024/01/17 08:13:19;;;;;;;1.40;0.30;;;;;;;-2.12;96.65;99272.53;5076188;28;20453;-73
2024/01/17 08:15:46;;;;;;;1.47;0.30;;;;;;;-2.17;96.18;99269.84;5076169;28;20491;-73
2024/01/17 08:18:13;;;;;;;1.60;0.60;;;;;;;-2.09;95.98;99255.28;5076208;28;20429;-72
2024/01/17 08:20:40;;;;;;;1.70;0.90;;;;;;;-1.99;95.93;99262.53;5076172;28;20474;-72
2024/01/17 08:23:06;;;;;;;1.50;0.40;;;;;;;-1.96;96.00;99260.19;5075980;28;20552;-72
2024/01/17 08:25:34;;;;;;;1.70;0.57;;;;;;;-1.92;96.12;99260.50;5076152;28;20429;-72
2024/01/17 08:28:01;;;;;;;1.50;0.30;;;;;;;-1.85;95.72;99261.91;5076782;28;20463;-73
2024/01/17 08:30:28;;;;;;;1.47;0.30;;;;;;;-1.84;96.50;99254.75;5076086;28;20532;-72
2024/01/17 08:32:54;;;;;;;2.67;1.03;;;;;;;-1.75;96.33;99255.06;5076224;28;20549;-72
2024/01/17 08:35:21;;;;;;;1.87;0.90;;;;;;;-1.71;96.18;99249.00;5076111;28;20469;-72
2024/01/17 08:37:48;;;;;;;1.80;0.70;;;;;;;-1.70;94.82;99247.94;5075953;28;20625;-72
2024/01/17 08:40:15;;;;;;;1.50;0.30;;;;;;;-1.74;95.16;99238.09;5075888;28;20551;-72
2024/01/17 08:42:45;;;;;;;1.80;0.60;;;;;;;-1.63;95.18;99237.13;5075308;28;20973;-72
2024/01/17 08:45:12;;;;;;;1.50;0.50;;;;;;;-1.60;94.70;99231.28;5075774;28;20511;-73
2024/01/17 08:47:41;;;;;;;1.50;0.30;;;;;;;-1.51;94.53;99227.13;5076078;28;20796;-71
2024/01/17 08:50:09;;;;;;;1.80;0.87;;;;;;;-1.48;93.58;99231.13;5076051;28;20506;-71
2024/01/17 08:52:36;;;;;;;1.83;0.80;;;;;;;-1.47;93.30;99220.25;5075549;28;20515;-71
2024/01/17 08:55:02;;;;;;;2.27;0.60;;;;;;;-1.45;93.00;99214.69;5075336;28;21000;-71
2024/01/17 08:57:29;;;;;;;1.50;0.50;;;;;;;-1.45;93.18;99209.38;5076070;28;20503;-71
2024/01/17 08:59:57;;;;;;;2.87;0.93;;;;;;;-1.40;92.31;99209.41;5075425;28;20525;-71
2024/01/17 09:02:24;;;;;;;3.03;1.30;;;;;;;-1.35;91.95;99207.56;5075295;28;21002;-71
2024/01/17 09:04:50;;;;;;;1.80;0.70;;;;;;;-1.37;91.77;99201.72;5075062;28;21017;-71
2024/01/17 09:07:17;;;;;;;2.87;0.60;;;;;;;-1.32;91.67;99204.41;5074995;28;20441;-71
2024/01/17 09:09:44;;;;;;;1.93;1.20;;;;;;;-1.22;91.01;99201.00;5075324;28;20529;-71
2024/01/17 09:12:12;;;;;;;4.17;0.73;;;;;;;-1.18;91.27;99190.69;5074938;28;20457;-71
2024/01/17 09:14:41;;;;;;;1.50;0.30;;;;;;;-1.21;91.33;99191.97;5074892;28;20446;-71
2024/01/17 09:17:09;;;;;;;1.90;0.60;;;;;;;-1.15;90.59;99195.44;5075089;28;20483;-71
2024/01/17 09:19:36;;;;;;;2.47;1.30;;;;;;;-1.14;89.81;99197.88;5074847;28;20469;-71
2024/01/17 09:22:02;;;;;;;1.50;0.40;;;;;;;-1.10;89.33;99198.94;5074738;28;20492;-71
2024/01/17 09:24:30;;;;;;;4.07;0.57;;;;;;;-1.10;90.96;99185.66;5074730;28;20532;-71
2024/01/17 09:26:56;;;;;;;2.37;0.53;;;;;;;-1.06;90.92;99189.41;5074719;28;20488;-71
2024/01/17 09:29:23;;;;;;;1.57;0.43;;;;;;;-1.01;89.13;99191.28;5075211;28;20526;-71
2024/01/17 09:31:50;;;;;;;3.40;0.90;;;;;;;-1.02;86.32;99187.84;5074655;28;20464;-69
2024/01/17 09:34:18;;;;;;;1.60;0.40;;;;;;;-1.12;86.89;99171.84;5075200;28;20528;-72
2024/01/17 09:36:45;;;;;;;2.00;0.73;;;;;;;-1.08;87.45;99177.44;5075010;28;20520;-71
2024/01/17 09:39:13;;;;;;;1.50;0.30;;;;;;;-1.08;86.37;99182.75;5074782;28;20495;-71
2024/01/17 09:41:40;;;;;;;2.50;1.10;;;;;;;-1.04;85.76;99174.00;5074362;28;20466;-71
2024/01/17 09:44:07;;;;;;;2.23;0.73;;;;;;;-0.99;86.74;99170.56;5074395;28;20959;-71
2024/01/17 09:46:35;;;;;;;1.80;0.80;;;;;;;-0.96;87.21;99169.25;5074370;28;20961;-71
2024/01/17 09:49:02;;;;;;;1.60;0.37;;;;;;;-0.84;87.82;99173.28;5075288;28;20434;-71
2024/01/17 09:51:33;;;;;;;1.60;0.50;;;;;;;-0.75;87.38;99157.63;5074499;28;20506;-71
2024/01/17 09:54:04;;;;;;;1.57;0.37;;;;;;;-0.64;87.65;99143.28;5074531;28;20953;-71
2024/01/17 09:56:33;;;;;;;1.50;0.30;;;;;;;-0.56;85.48;99147.31;5074711;28;20564;-71
2024/01/17 09:59:03;;;;;;;1.60;0.40;;;;;;;-0.52;86.75;99143.06;5074380;28;20530;-71
2024/01/17 10:01:31;;;;;;;1.77;0.53;;;;;;;-0.40;86.81;99138.28;5074852;28;20453;-72
2024/01/17 10:04:00;;;;;;;3.20;0.90;;;;;;;-0.37;86.20;99132.41;5073366;28;20437;-71
2024/01/17 10:06:30;;;;;;;1.50;0.30;;;;;;;-0.24;86.36;99135.63;5074567;28;21024;-71
2024/01/17 10:08:58;;;;;;;7.77;1.70;;;;;;;-0.17;85.29;99128.19;5074293;28;20478;-71
2024/01/17 10:11:25;;;;;;;1.80;0.83;;;;;;;-0.16;82.90;99117.28;5074052;28;20481;-71
2024/01/17 10:13:52;;;;;;;1.80;0.70;;;;;;;-0.18;83.46;99113.28;5074299;28;20467;-71
2024/01/17 10:16:19;;;;;;;1.67;0.60;;;;;;;-0.21;82.79;99108.50;5074312;28;20568;-71
2024/01/17 10:18:45;;;;;;;1.53;0.40;;;;;;;-0.18;82.94;99098.09;5074425;28;20445;-71
2024/01/17 10:21:12;;;;;;;2.50;1.23;;;;;;;-0.09;82.84;99091.19;5073865;28;20464;-71
2024/01/17 10:23:40;;;;;;;1.50;0.30;;;;;;;-0.06;82.78;99071.22;5073895;28;20453;-71
2024/01/17 10:26:09;;;;;;;3.77;2.17;;;;;;;-0.09;82.78;99075.22;5073654;28;20812;-71
2024/01/17 10:28:35;;;;;;;1.50;0.30;;;;;;;-0.06;80.41;99068.56;5073914;28;20445;-71
2024/01/17 10:31:04;;;;;;;1.73;0.60;;;;;;;-0.02;79.56;99065.09;5073561;28;20536;-71
2024/01/17 10:33:31;;;;;;;2.07;1.10;;;;;;;-0.05;80.32;99068.28;5073874;28;20441;-71
2024/01/17 10:35:58;;;;;;;1.50;0.40;;;;;;;-0.02;80.25;99054.44;5073462;28;20520;-71
2024/01/17 10:38:31;;;;;;;1.50;0.40;;;;;;;0.02;80.35;99051.25;5073456;28;20500;-72
2024/01/17 10:41:05;;;;;;;2.37;1.80;;;;;;;0.03;82.34;99045.66;5073420;28;20507;-72
2024/01/17 10:43:32;;;;;;;2.10;1.17;;;;;;;0.13;82.04;99039.50;5073708;28;20516;-72
2024/01/17 10:46:02;;;;;;;2.10;1.03;;;;;;;0.24;81.44;99031.22;5073600;28;20467;-72
2024/01/17 10:48:29;;;;;;;1.50;0.30;;;;;;;0.23;81.42;99028.84;5073615;28;20498;-72
2024/01/17 10:51:01;;;;;;;1.50;0.37;;;;;;;0.27;80.89;99019.25;5073528;28;20433;-72
2024/01/17 10:53:31;;;;;;;1.73;0.80;;;;;;;0.33;81.24;99014.69;5073639;28;20489;-72
2024/01/17 10:56:02;;;;;;;2.20;1.13;;;;;;;0.43;81.03;99014.66;5074597;28;20592;-72
2024/01/17 10:58:33;;;;;;;1.50;0.40;;;;;;;0.53;80.65;99013.81;5073325;28;20449;-74
2024/01/17 11:01:06;;;;;;;3.20;1.40;;;;;;;0.59;78.35;99016.19;5073302;28;20438;-73
2024/01/17 11:03:37;;;;;;;1.97;0.87;;;;;;;0.62;78.76;99004.97;5073434;28;20882;-72
2024/01/17 11:06:06;;;;;;;2.00;1.03;;;;;;;0.70;79.03;98999.06;5073181;28;20920;-73
2024/01/17 11:08:34;;;;;;;4.53;1.30;;;;;;;0.80;79.59;98992.06;5073146;28;20912;-73
2024/01/17 11:11:01;;;;;;;3.10;0.67;;;;;;;0.91;78.52;98974.97;5073453;28;20858;-72
2024/01/17 11:13:30;;;;;;;1.60;0.40;;;;;;;0.92;76.81;98971.22;5073353;28;20540;-71
2024/01/17 11:15:59;;;;;;;2.30;0.90;;;;;;;0.93;77.54;98951.47;5075739;28;20513;-72
2024/01/17 11:18:27;;;;;;;1.87;0.87;;;;;;;0.96;77.43;98946.38;5077804;28;20444;-72
2024/01/17 11:20:56;;;;;;;3.83;1.63;;;;;;;0.96;78.07;98942.94;5077764;28;20433;-72
2024/01/17 11:23:32;;;;;;;1.70;0.63;;;;;;;0.99;76.20;98939.72;5076964;28;20468;-73
2024/01/17 11:26:08;;;;;;;2.43;1.50;;;;;;;1.06;77.20;98931.38;5077717;28;20425;-72
2024/01/17 11:28:44;;;;;;;2.30;1.13;;;;;;;1.14;77.05;98931.59;5077324;28;20451;-72